sensor_id;sensor_type;location;lat;lon;timestamp;P1;durP1;ratioP1;P2;durP2;ratioP2
21899;SDS011;11114;50.658;12.704;2024-03-08T18:16:45;25.50;;;22.02;;
21899;SDS011;11114;50.658;12.704;2024-03-08T18:35:30;25.80;;;23.10;;
21899;SDS011;11114;50.658;12.704;2024-03-08T18:38:21;25.48;;;22.88;;
21899;SDS011;11114;50.658;12.704;2024-03-08T18:41:11;25.23;;;22.70;;
21899;SDS011;11114;50.658;12.704;2024-03-08T18:44:00;22.75;;;20.40;;
21899;SDS011;11114;50.658;12.704;2024-03-08T18:46:48;25.02;;;22.55;;
21899;SDS011;11114;50.658;12.704;2024-03-08T18:49:37;26.17;;;23.48;;
21899;SDS011;11114;50.658;12.704;2024-03-08T18:52:25;26.00;;;23.30;;
21899;SDS011;11114;50.658;12.704;2024-03-08T18:55:15;26.02;;;23.52;;
21899;SDS011;11114;50.658;12.704;2024-03-08T18:58:07;25.83;;;23.13;;
21899;SDS011;11114;50.658;12.704;2024-03-08T19:00:55;25.52;;;22.88;;
21899;SDS011;11114;50.658;12.704;2024-03-08T19:03:41;28.55;;;23.58;;
21899;SDS011;11114;50.658;12.704;2024-03-08T19:06:28;26.27;;;23.67;;
21899;SDS011;11114;50.658;12.704;2024-03-08T19:09:18;26.13;;;23.45;;
21899;SDS011;11114;50.658;12.704;2024-03-08T19:12:06;26.05;;;23.50;;
21899;SDS011;11114;50.658;12.704;2024-03-08T19:14:54;25.20;;;22.45;;
21899;SDS011;11114;50.658;12.704;2024-03-08T19:17:43;27.20;;;24.40;;
21899;SDS011;11114;50.658;12.704;2024-03-08T19:20:32;26.20;;;23.40;;
21899;SDS011;11114;50.658;12.704;2024-03-08T19:23:22;26.70;;;23.65;;
21899;SDS011;11114;50.658;12.704;2024-03-08T19:26:08;26.50;;;23.70;;
21899;SDS011;11114;50.658;12.704;2024-03-08T19:28:58;26.05;;;23.45;;
21899;SDS011;11114;50.658;12.704;2024-03-08T19:31:48;25.95;;;23.27;;
21899;SDS011;11114;50.658;12.704;2024-03-08T19:34:36;25.90;;;23.30;;
21899;SDS011;11114;50.658;12.704;2024-03-08T19:37:25;25.45;;;22.42;;
21899;SDS011;11114;50.658;12.704;2024-03-08T19:40:15;27.38;;;24.48;;
21899;SDS011;11114;50.658;12.704;2024-03-08T19:43:06;25.42;;;22.83;;
21899;SDS011;11114;50.658;12.704;2024-03-08T19:46:01;26.48;;;23.73;;
21899;SDS011;11114;50.658;12.704;2024-03-08T19:54:04;28.77;;;25.77;;
21899;SDS011;11114;50.658;12.704;2024-03-08T19:58:24;26.35;;;22.17;;
21899;SDS011;11114;50.658;12.704;2024-03-08T20:01:18;29.20;;;26.13;;
21899;SDS011;11114;50.658;12.704;2024-03-08T20:04:31;28.88;;;25.88;;
21899;SDS011;11114;50.658;12.704;2024-03-08T20:08:01;29.85;;;26.60;;
21899;SDS011;11114;50.658;12.704;2024-03-08T20:11:00;31.88;;;26.83;;
21899;SDS011;11114;50.658;12.704;2024-03-08T20:14:05;30.52;;;26.98;;
21899;SDS011;11114;50.658;12.704;2024-03-08T20:16:52;31.35;;;27.35;;
21899;SDS011;11114;50.658;12.704;2024-03-08T20:19:53;29.85;;;26.70;;
21899;SDS011;11114;50.658;12.704;2024-03-08T20:23:03;32.53;;;26.80;;
21899;SDS011;11114;50.658;12.704;2024-03-08T20:26:29;27.52;;;24.63;;
21899;SDS011;11114;50.658;12.704;2024-03-08T20:33:05;29.25;;;25.33;;
21899;SDS011;11114;50.658;12.704;2024-03-08T20:36:11;28.45;;;25.45;;
21899;SDS011;11114;50.658;12.704;2024-03-08T20:38:57;29.08;;;25.83;;
21899;SDS011;11114;50.658;12.704;2024-03-08T20:41:44;30.83;;;26.73;;
21899;SDS011;11114;50.658;12.704;2024-03-08T20:44:31;30.13;;;26.77;;
21899;SDS011;11114;50.658;12.704;2024-03-08T20:47:20;31.15;;;26.67;;
21899;SDS011;11114;50.658;12.704;2024-03-08T20:50:11;28.38;;;25.40;;
21899;SDS011;11114;50.658;12.704;2024-03-08T20:52:59;29.60;;;26.30;;
21899;SDS011;11114;50.658;12.704;2024-03-08T20:55:46;28.92;;;25.75;;
21899;SDS011;11114;50.658;12.704;2024-03-08T20:58:39;31.17;;;26.92;;
21899;SDS011;11114;50.658;12.704;2024-03-08T21:01:28;33.03;;;26.95;;
21899;SDS011;11114;50.658;12.704;2024-03-08T21:04:18;29.38;;;26.27;;
21899;SDS011;11114;50.658;12.704;2024-03-08T21:07:05;30.70;;;27.38;;
21899;SDS011;11114;50.658;12.704;2024-03-08T21:09:53;31.00;;;27.63;;
21899;SDS011;11114;50.658;12.704;2024-03-08T21:12:40;31.40;;;26.80;;
21899;SDS011;11114;50.658;12.704;2024-03-08T21:15:31;31.73;;;27.10;;
21899;SDS011;11114;50.658;12.704;2024-03-08T21:18:17;32.42;;;28.05;;
21899;SDS011;11114;50.658;12.704;2024-03-08T21:21:03;31.13;;;27.05;;
21899;SDS011;11114;50.658;12.704;2024-03-08T21:23:53;31.95;;;27.25;;
21899;SDS011;11114;50.658;12.704;2024-03-08T21:26:39;31.55;;;27.25;;
21899;SDS011;11114;50.658;12.704;2024-03-08T21:29:26;30.75;;;27.10;;
21899;SDS011;11114;50.658;12.704;2024-03-08T21:32:15;31.40;;;27.55;;
21899;SDS011;11114;50.658;12.704;2024-03-08T21:35:02;30.45;;;27.02;;
21899;SDS011;11114;50.658;12.704;2024-03-08T21:37:49;31.42;;;26.95;;
21899;SDS011;11114;50.658;12.704;2024-03-08T21:40:36;32.33;;;27.90;;
21899;SDS011;11114;50.658;12.704;2024-03-08T21:43:46;32.78;;;27.33;;
21899;SDS011;11114;50.658;12.704;2024-03-08T21:46:33;30.80;;;27.40;;
21899;SDS011;11114;50.658;12.704;2024-03-08T21:49:20;30.55;;;27.05;;
